Decoded Metar for PFCL ( in ) (IATA:) | Meteo·Mobile Aviation Weather
aviador You're here:

PFCL Decoded Metar

in
Report Time2019-07-24 04:56:00
UTC Time2019-07-24 05:23:37
Flight Rules vfr VFR
Wind240° at 11 kt
W.Decomp.*RWY 18: 5.5 kt HW 9.5 kt RCW
Visibility9999 m
Phenomena:N/A
Clouds:N/A
Expected CloudBase > 1,600 ft AGL from Temp-Dew spread
CeilingNone
Temp16°C
Dew Point12°C (77% RH)
AAT12.6°C
QNH1012 hPa
Raw Report
PFCL 240456Z AUTO 24011KT 10SM CLR 16/12 A2989 RMK AO2 SLP114
T01560117 TSNO=

Extra information for PFCL:More info

Social comments